Here is the Quick Look data you requested

The Data originates at the National Weather Service, and is made available here by the UAlbany Department of Atmospheric and Environmental Sciences

Surface Observations

KLNP 151955Z AUTO 30006KT 10SM VCTS SCT030 SCT047 BKN065 26/19 A3013 RMK AO2
 LTG DSNT W THRU NE=
KLNP 152015Z AUTO 30007G17KT 10SM VCTS SCT060 SCT110 25/18 A3012 RMK AO2 LTG
 DSNT NW=
KLNP 152035Z AUTO 26003KT 10SM SCT060 SCT100 SCT120 27/18 A3012 RMK AO2 LTG
 DSNT S=
KLNP 152055Z AUTO 24005KT 10SM SCT110 27/17 A3009 RMK AO2 LTG DSNT SE AND S=
KLNP 152115Z AUTO 20008KT 10SM CLR 27/18 A3009 RMK AO2 LTG DSNT W=
KLNP 152135Z AUTO 23006KT 10SM CLR 29/18 A3008 RMK AO2=
KLNP 152155Z AUTO 24006KT 10SM CLR 29/18 A3008 RMK AO2=
KLNP 152215Z AUTO 25006KT 10SM CLR 29/18 A3008 RMK AO2=
KLNP 152235Z AUTO 27007KT 10SM CLR 29/17 A3007 RMK AO2=
KLNP 152255Z AUTO 25006KT 10SM CLR 29/17 A3008 RMK AO2=
KLNP 152315Z AUTO 24007KT 10SM CLR 29/17 A3008 RMK AO2=
KLNP 152335Z AUTO 23004KT 10SM CLR 28/18 A3008 RMK AO2=
KLNP 152355Z AUTO 23004KT 10SM CLR 28/18 A3008 RMK AO2=
KLNP 160015Z AUTO 22003KT 10SM CLR 27/18 A3008 RMK AO2=
KLNP 160035Z AUTO 21003KT 10SM CLR 26/18 A3009 RMK AO2=
KLNP 160055Z AUTO 18003KT 10SM CLR 26/17 A3009 RMK AO2=
KLNP 160115Z AUTO 20004KT 10SM CLR 25/18 A3009 RMK AO2=
KLNP 160135Z AUTO 20004KT 10SM CLR 25/17 A3009 RMK AO2=
KLNP 160155Z AUTO 20004KT 10SM CLR 24/17 A3009 RMK AO2=
KLNP 160215Z AUTO 21004KT 10SM CLR 24/18 A3009 RMK AO2=
KLNP 160235Z AUTO 20004KT 10SM CLR 23/18 A3009 RMK AO2=
KLNP 160255Z AUTO 21003KT 10SM CLR 23/18 A3008 RMK AO2=
KLNP 160315Z AUTO 21003KT 10SM CLR 22/18 A3007 RMK AO2=
KLNP 160335Z AUTO 20004KT 10SM CLR 23/18 A3006 RMK AO2=
KLNP 160355Z AUTO 21005KT 10SM CLR 23/17 A3006 RMK AO2=
KLNP 160415Z AUTO 21005KT 10SM CLR 23/17 A3007 RMK AO2=
KLNP 160435Z AUTO 24003KT 10SM CLR 23/17 A3008 RMK AO2=
KLNP 160455Z AUTO 20004KT 10SM CLR 21/17 A3008 RMK AO2=
KLNP 160515Z AUTO 22005KT 10SM CLR 21/17 A3008 RMK AO2=
KLNP 160535Z AUTO 27003KT 10SM CLR 22/18 A3008 RMK AO2=
KLNP 160555Z AUTO 24004KT 10SM CLR 20/17 A3009 RMK AO2=
KLNP 160615Z AUTO 22005KT 10SM CLR 21/18 A3009 RMK AO2=
KLNP 160635Z AUTO 23008KT 10SM CLR 22/18 A3010 RMK AO2=
KLNP 160655Z AUTO 23008KT 10SM CLR 23/18 A3010 RMK AO2=
KLNP 160715Z AUTO 26006KT 10SM CLR 22/18 A3010 RMK AO2=
KLNP 160735Z AUTO 25005KT 10SM CLR 22/18 A3009 RMK AO2=
KLNP 160755Z AUTO 20005KT 10SM CLR 21/18 A3008 RMK AO2=
KLNP 160815Z AUTO 00000KT 10SM CLR 22/18 A3008 RMK AO2=
KLNP 160835Z AUTO 00000KT 10SM CLR 21/18 A3008 RMK AO2=
KLNP 160855Z AUTO 21003KT 10SM CLR 20/18 A3008 RMK AO2=
KLNP 160915Z AUTO 00000KT 10SM CLR 20/18 A3008 RMK AO2=
KLNP 160935Z AUTO 22003KT 10SM CLR 20/18 A3009 RMK AO2=
KLNP 160955Z AUTO 21004KT 10SM CLR 20/18 A3008 RMK AO2=
KLNP 161015Z AUTO 20004KT 10SM CLR 20/18 A3007 RMK AO2=
KLNP 161035Z AUTO 18004KT 10SM CLR 20/18 A3007 RMK AO2=
KLNP 161055Z AUTO 27004KT 10SM CLR 20/18 A3009 RMK AO2=
KLNP 161115Z AUTO 27005KT 10SM CLR 20/18 A3010 RMK AO2=
KLNP 161135Z AUTO 22004KT 10SM BKN028 BKN048 BKN050 21/19 A3010 RMK AO2=
KLNP 161155Z AUTO 22004KT 10SM BKN028 OVC035 21/19 A3011 RMK AO2=
KLNP 161215Z AUTO 24005KT 10SM BKN026 BKN034 OVC040 22/19 A3011 RMK AO2=
KLNP 161235Z AUTO 23006KT 10SM SCT026 BKN036 BKN044 22/19 A3012 RMK AO2=
KLNP 161255Z AUTO 23006KT 10SM SCT045 SCT065 SCT085 23/20 A3011 RMK AO2=
KLNP 161315Z AUTO 24006KT 10SM CLR 25/20 A3012 RMK AO2=
KLNP 161335Z AUTO 23004KT 10SM CLR 25/20 A3012 RMK AO2=
KLNP 161355Z AUTO 25006KT 10SM SCT039 25/20 A3013 RMK AO2=
KLNP 161415Z AUTO 25006KT 10SM SCT039 26/20 A3012 RMK AO2=
KLNP 161435Z AUTO 27005KT 10SM SCT060 26/20 A3012 RMK AO2=
KLNP 161455Z AUTO 24005G14KT 10SM SCT060 27/20 A3012 RMK AO2 LTG DSNT S AND SW=
KLNP 161515Z AUTO 25006KT 10SM SCT031 SCT037 27/19 A3012 RMK AO2=
KLNP 161535Z AUTO 24007KT 10SM SCT035 SCT044 28/19 A3012 RMK AO2=
KLNP 161555Z AUTO 22006KT 10SM BKN031 BKN037 BKN046 27/20 A3011 RMK AO2=
KLNP 161615Z AUTO 23008KT 10SM SCT033 SCT046 BKN100 28/19 A3010 RMK AO2=
KLNP 161635Z AUTO 26007KT 10SM SCT033 BKN041 BKN050 27/19 A3010 RMK AO2=
KLNP 161655Z AUTO 25008KT 10SM BKN037 BKN044 BKN070 27/19 A3010 RMK AO2=
KLNP 161715Z AUTO 18009KT 150V210 10SM SCT037 SCT044 28/19 A3008 RMK AO2 LTG
 DSNT E=
KLNP 161735Z AUTO 18008G16KT 10SM SCT042 SCT047 28/20 A3009 RMK AO2 LTG DSNT E=
KLNP 161755Z AUTO 17010KT 10SM SCT033 SCT042 BKN048 28/21 A3008 RMK AO2 LTG
 DSNT SE=
KLNP 161815Z AUTO 17008KT 10SM SCT033 SCT040 BKN055 27/21 A3007 RMK AO2=
KLNP 161835Z AUTO 21006KT 10SM SCT031 BKN040 BKN046 27/21 A3007 RMK AO2 LTG
 DSNT SE=
KLNP 161855Z AUTO 24009KT 10SM SCT030 SCT034 SCT040 29/20 A3006 RMK AO2 LTG
 DSNT SE=
KLNP 161915Z AUTO 23010G16KT 10SM CLR 29/19 A3006 RMK AO2=
KLNP 161935Z AUTO 22010KT 10SM CLR 30/18 A3006 RMK AO2=
KLNP 161955Z AUTO 21010G16KT 10SM SCT044 30/18 A3005 RMK AO2=

Decoded Surface Observations


The weather observed at WISE/LONESOME PI, VA (KLNP) at 03:55 PM EDT was:
  The skies were mostly cloudy.
  The weather reported was a thunderstorm in the vicinity.
  Temperature: 79F ( 26C)  Dewpoint:  66F ( 19C)  Relative Humidity:  65%
  Winds from the NW (300 degs) at  7 mph.
  Altimeter:30.13 inches of mercury.
  The prevailing visibility was 10 miles.

The weather observed at WISE/LONESOME PI, VA (KLNP) at 04:15 PM EDT was:
  The skies were partly cloudy.
  The weather reported was a thunderstorm in the vicinity.
  Temperature: 77F ( 25C)  Dewpoint:  64F ( 18C)  Relative Humidity:  65%
  Winds from the NW (300 degs) at  8 mph.
  Altimeter:30.12 inches of mercury.
  The prevailing visibility was 10 miles.

The weather observed at WISE/LONESOME PI, VA (KLNP) at 04:35 PM EDT was:
  The skies were partly cloudy.
  Temperature: 81F ( 27C)  Dewpoint:  64F ( 18C)  Relative Humidity:  58%
  Winds from the W  (260 degs) at  3 mph.
  Altimeter:30.12 inches of mercury.
  The prevailing visibility was 10 miles.

The weather observed at WISE/LONESOME PI, VA (KLNP) at 04:55 PM EDT was:
  The skies were partly cloudy.
  Temperature: 81F ( 27C)  Dewpoint:  63F ( 17C)  Relative Humidity:  54%
  Winds from the SW (240 degs) at  6 mph.
  Altimeter:30.09 inches of mercury.
  The prevailing visibility was 10 miles.

The weather observed at WISE/LONESOME PI, VA (KLNP) at 05:15 PM EDT was:
  The skies were clear.
  Temperature: 81F ( 27C)  Dewpoint:  64F ( 18C)  Relative Humidity:  58%
  Winds from the SSW(200 degs) at  9 mph.
  Altimeter:30.09 inches of mercury.
  The prevailing visibility was 10 miles.

The weather observed at WISE/LONESOME PI, VA (KLNP) at 05:35 PM EDT was:
  The skies were clear.
  Temperature: 84F ( 29C)  Dewpoint:  64F ( 18C)  Relative Humidity:  51%
  Winds from the SW (230 degs) at  7 mph.
  Altimeter:30.08 inches of mercury.
  The prevailing visibility was 10 miles.

The weather observed at WISE/LONESOME PI, VA (KLNP) at 05:55 PM EDT was:
  The skies were clear.
  Temperature: 84F ( 29C)  Dewpoint:  64F ( 18C)  Relative Humidity:  51%
  Winds from the SW (240 degs) at  7 mph.
  Altimeter:30.08 inches of mercury.
  The prevailing visibility was 10 miles.

The weather observed at WISE/LONESOME PI, VA (KLNP) at 06:15 PM EDT was:
  The skies were clear.
  Temperature: 84F ( 29C)  Dewpoint:  64F ( 18C)  Relative Humidity:  51%
  Winds from the WSW(250 degs) at  7 mph.
  Altimeter:30.08 inches of mercury.
  The prevailing visibility was 10 miles.

The weather observed at WISE/LONESOME PI, VA (KLNP) at 06:35 PM EDT was:
  The skies were clear.
  Temperature: 84F ( 29C)  Dewpoint:  63F ( 17C)  Relative Humidity:  48%
  Winds from the W  (270 degs) at  8 mph.
  Altimeter:30.07 inches of mercury.
  The prevailing visibility was 10 miles.

The weather observed at WISE/LONESOME PI, VA (KLNP) at 06:55 PM EDT was:
  The skies were clear.
  Temperature: 84F ( 29C)  Dewpoint:  63F ( 17C)  Relative Humidity:  48%
  Winds from the WSW(250 degs) at  7 mph.
  Altimeter:30.08 inches of mercury.
  The prevailing visibility was 10 miles.

The weather observed at WISE/LONESOME PI, VA (KLNP) at 07:15 PM EDT was:
  The skies were clear.
  Temperature: 84F ( 29C)  Dewpoint:  63F ( 17C)  Relative Humidity:  48%
  Winds from the SW (240 degs) at  8 mph.
  Altimeter:30.08 inches of mercury.
  The prevailing visibility was 10 miles.

The weather observed at WISE/LONESOME PI, VA (KLNP) at 07:35 PM EDT was:
  The skies were clear.
  Temperature: 82F ( 28C)  Dewpoint:  64F ( 18C)  Relative Humidity:  55%
  Winds from the SW (230 degs) at  5 mph.
  Altimeter:30.08 inches of mercury.
  The prevailing visibility was 10 miles.

The weather observed at WISE/LONESOME PI, VA (KLNP) at 07:55 PM EDT was:
  The skies were clear.
  Temperature: 82F ( 28C)  Dewpoint:  64F ( 18C)  Relative Humidity:  55%
  Winds from the SW (230 degs) at  5 mph.
  Altimeter:30.08 inches of mercury.
  The prevailing visibility was 10 miles.

The weather observed at WISE/LONESOME PI, VA (KLNP) at 08:15 PM EDT was:
  The skies were clear.
  Temperature: 81F ( 27C)  Dewpoint:  64F ( 18C)  Relative Humidity:  58%
  Winds from the SW (220 degs) at  3 mph.
  Altimeter:30.08 inches of mercury.
  The prevailing visibility was 10 miles.

The weather observed at WISE/LONESOME PI, VA (KLNP) at 08:35 PM EDT was:
  The skies were clear.
  Temperature: 79F ( 26C)  Dewpoint:  64F ( 18C)  Relative Humidity:  61%
  Winds from the SW (210 degs) at  3 mph.
  Altimeter:30.09 inches of mercury.
  The prevailing visibility was 10 miles.

The weather observed at WISE/LONESOME PI, VA (KLNP) at 08:55 PM EDT was:
  The skies were clear.
  Temperature: 79F ( 26C)  Dewpoint:  63F ( 17C)  Relative Humidity:  58%
  Winds from the S  (180 degs) at  3 mph.
  Altimeter:30.09 inches of mercury.
  The prevailing visibility was 10 miles.

The weather observed at WISE/LONESOME PI, VA (KLNP) at 09:15 PM EDT was:
  The skies were clear.
  Temperature: 77F ( 25C)  Dewpoint:  64F ( 18C)  Relative Humidity:  65%
  Winds from the SSW(200 degs) at  5 mph.
  Altimeter:30.09 inches of mercury.
  The prevailing visibility was 10 miles.

The weather observed at WISE/LONESOME PI, VA (KLNP) at 09:35 PM EDT was:
  The skies were clear.
  Temperature: 77F ( 25C)  Dewpoint:  63F ( 17C)  Relative Humidity:  61%
  Winds from the SSW(200 degs) at  5 mph.
  Altimeter:30.09 inches of mercury.
  The prevailing visibility was 10 miles.

The weather observed at WISE/LONESOME PI, VA (KLNP) at 09:55 PM EDT was:
  The skies were clear.
  Temperature: 75F ( 24C)  Dewpoint:  63F ( 17C)  Relative Humidity:  65%
  Winds from the SSW(200 degs) at  5 mph.
  Altimeter:30.09 inches of mercury.
  The prevailing visibility was 10 miles.

The weather observed at WISE/LONESOME PI, VA (KLNP) at 10:15 PM EDT was:
  The skies were clear.
  Temperature: 75F ( 24C)  Dewpoint:  64F ( 18C)  Relative Humidity:  69%
  Winds from the SW (210 degs) at  5 mph.
  Altimeter:30.09 inches of mercury.
  The prevailing visibility was 10 miles.

The weather observed at WISE/LONESOME PI, VA (KLNP) at 10:35 PM EDT was:
  The skies were clear.
  Temperature: 73F ( 23C)  Dewpoint:  64F ( 18C)  Relative Humidity:  73%
  Winds from the SSW(200 degs) at  5 mph.
  Altimeter:30.09 inches of mercury.
  The prevailing visibility was 10 miles.

The weather observed at WISE/LONESOME PI, VA (KLNP) at 10:55 PM EDT was:
  The skies were clear.
  Temperature: 73F ( 23C)  Dewpoint:  64F ( 18C)  Relative Humidity:  73%
  Winds from the SW (210 degs) at  3 mph.
  Altimeter:30.08 inches of mercury.
  The prevailing visibility was 10 miles.

The weather observed at WISE/LONESOME PI, VA (KLNP) at 11:15 PM EDT was:
  The skies were clear.
  Temperature: 72F ( 22C)  Dewpoint:  64F ( 18C)  Relative Humidity:  78%
  Winds from the SW (210 degs) at  3 mph.
  Altimeter:30.07 inches of mercury.
  The prevailing visibility was 10 miles.

The weather observed at WISE/LONESOME PI, VA (KLNP) at 11:35 PM EDT was:
  The skies were clear.
  Temperature: 73F ( 23C)  Dewpoint:  64F ( 18C)  Relative Humidity:  73%
  Winds from the SSW(200 degs) at  5 mph.
  Altimeter:30.06 inches of mercury.
  The prevailing visibility was 10 miles.

The weather observed at WISE/LONESOME PI, VA (KLNP) at 11:55 PM EDT was:
  The skies were clear.
  Temperature: 73F ( 23C)  Dewpoint:  63F ( 17C)  Relative Humidity:  69%
  Winds from the SW (210 degs) at  6 mph.
  Altimeter:30.06 inches of mercury.
  The prevailing visibility was 10 miles.

The weather observed at WISE/LONESOME PI, VA (KLNP) at 12:15 AM EDT was:
  The skies were clear.
  Temperature: 73F ( 23C)  Dewpoint:  63F ( 17C)  Relative Humidity:  69%
  Winds from the SW (210 degs) at  6 mph.
  Altimeter:30.07 inches of mercury.
  The prevailing visibility was 10 miles.

The weather observed at WISE/LONESOME PI, VA (KLNP) at 12:35 AM EDT was:
  The skies were clear.
  Temperature: 73F ( 23C)  Dewpoint:  63F ( 17C)  Relative Humidity:  69%
  Winds from the SW (240 degs) at  3 mph.
  Altimeter:30.08 inches of mercury.
  The prevailing visibility was 10 miles.

The weather observed at WISE/LONESOME PI, VA (KLNP) at 12:55 AM EDT was:
  The skies were clear.
  Temperature: 70F ( 21C)  Dewpoint:  63F ( 17C)  Relative Humidity:  78%
  Winds from the SSW(200 degs) at  5 mph.
  Altimeter:30.08 inches of mercury.
  The prevailing visibility was 10 miles.

The weather observed at WISE/LONESOME PI, VA (KLNP) at 01:15 AM EDT was:
  The skies were clear.
  Temperature: 70F ( 21C)  Dewpoint:  63F ( 17C)  Relative Humidity:  78%
  Winds from the SW (220 degs) at  6 mph.
  Altimeter:30.08 inches of mercury.
  The prevailing visibility was 10 miles.

The weather observed at WISE/LONESOME PI, VA (KLNP) at 01:35 AM EDT was:
  The skies were clear.
  Temperature: 72F ( 22C)  Dewpoint:  64F ( 18C)  Relative Humidity:  78%
  Winds from the W  (270 degs) at  3 mph.
  Altimeter:30.08 inches of mercury.
  The prevailing visibility was 10 miles.

The weather observed at WISE/LONESOME PI, VA (KLNP) at 01:55 AM EDT was:
  The skies were clear.
  Temperature: 68F ( 20C)  Dewpoint:  63F ( 17C)  Relative Humidity:  83%
  Winds from the SW (240 degs) at  5 mph.
  Altimeter:30.09 inches of mercury.
  The prevailing visibility was 10 miles.

The weather observed at WISE/LONESOME PI, VA (KLNP) at 02:15 AM EDT was:
  The skies were clear.
  Temperature: 70F ( 21C)  Dewpoint:  64F ( 18C)  Relative Humidity:  83%
  Winds from the SW (220 degs) at  6 mph.
  Altimeter:30.09 inches of mercury.
  The prevailing visibility was 10 miles.

The weather observed at WISE/LONESOME PI, VA (KLNP) at 02:35 AM EDT was:
  The skies were clear.
  Temperature: 72F ( 22C)  Dewpoint:  64F ( 18C)  Relative Humidity:  78%
  Winds from the SW (230 degs) at  9 mph.
  Altimeter:30.10 inches of mercury.
  The prevailing visibility was 10 miles.

The weather observed at WISE/LONESOME PI, VA (KLNP) at 02:55 AM EDT was:
  The skies were clear.
  Temperature: 73F ( 23C)  Dewpoint:  64F ( 18C)  Relative Humidity:  73%
  Winds from the SW (230 degs) at  9 mph.
  Altimeter:30.10 inches of mercury.
  The prevailing visibility was 10 miles.

The weather observed at WISE/LONESOME PI, VA (KLNP) at 03:15 AM EDT was:
  The skies were clear.
  Temperature: 72F ( 22C)  Dewpoint:  64F ( 18C)  Relative Humidity:  78%
  Winds from the W  (260 degs) at  7 mph.
  Altimeter:30.10 inches of mercury.
  The prevailing visibility was 10 miles.

The weather observed at WISE/LONESOME PI, VA (KLNP) at 03:35 AM EDT was:
  The skies were clear.
  Temperature: 72F ( 22C)  Dewpoint:  64F ( 18C)  Relative Humidity:  78%
  Winds from the WSW(250 degs) at  6 mph.
  Altimeter:30.09 inches of mercury.
  The prevailing visibility was 10 miles.

The weather observed at WISE/LONESOME PI, VA (KLNP) at 03:55 AM EDT was:
  The skies were clear.
  Temperature: 70F ( 21C)  Dewpoint:  64F ( 18C)  Relative Humidity:  83%
  Winds from the SSW(200 degs) at  6 mph.
  Altimeter:30.08 inches of mercury.
  The prevailing visibility was 10 miles.

The weather observed at WISE/LONESOME PI, VA (KLNP) at 04:15 AM EDT was:
  The skies were clear.
  Temperature: 72F ( 22C)  Dewpoint:  64F ( 18C)  Relative Humidity:  78%
  Winds from the CLM(CLM degs) at  0 mph.
  Altimeter:30.08 inches of mercury.
  The prevailing visibility was 10 miles.

The weather observed at WISE/LONESOME PI, VA (KLNP) at 04:35 AM EDT was:
  The skies were clear.
  Temperature: 70F ( 21C)  Dewpoint:  64F ( 18C)  Relative Humidity:  83%
  Winds from the CLM(CLM degs) at  0 mph.
  Altimeter:30.08 inches of mercury.
  The prevailing visibility was 10 miles.

The weather observed at WISE/LONESOME PI, VA (KLNP) at 04:55 AM EDT was:
  The skies were clear.
  Temperature: 68F ( 20C)  Dewpoint:  64F ( 18C)  Relative Humidity:  88%
  Winds from the SW (210 degs) at  3 mph.
  Altimeter:30.08 inches of mercury.
  The prevailing visibility was 10 miles.

The weather observed at WISE/LONESOME PI, VA (KLNP) at 05:15 AM EDT was:
  The skies were clear.
  Temperature: 68F ( 20C)  Dewpoint:  64F ( 18C)  Relative Humidity:  88%
  Winds from the CLM(CLM degs) at  0 mph.
  Altimeter:30.08 inches of mercury.
  The prevailing visibility was 10 miles.

The weather observed at WISE/LONESOME PI, VA (KLNP) at 05:35 AM EDT was:
  The skies were clear.
  Temperature: 68F ( 20C)  Dewpoint:  64F ( 18C)  Relative Humidity:  88%
  Winds from the SW (220 degs) at  3 mph.
  Altimeter:30.09 inches of mercury.
  The prevailing visibility was 10 miles.

The weather observed at WISE/LONESOME PI, VA (KLNP) at 05:55 AM EDT was:
  The skies were clear.
  Temperature: 68F ( 20C)  Dewpoint:  64F ( 18C)  Relative Humidity:  88%
  Winds from the SW (210 degs) at  5 mph.
  Altimeter:30.08 inches of mercury.
  The prevailing visibility was 10 miles.

The weather observed at WISE/LONESOME PI, VA (KLNP) at 06:15 AM EDT was:
  The skies were clear.
  Temperature: 68F ( 20C)  Dewpoint:  64F ( 18C)  Relative Humidity:  88%
  Winds from the SSW(200 degs) at  5 mph.
  Altimeter:30.07 inches of mercury.
  The prevailing visibility was 10 miles.

The weather observed at WISE/LONESOME PI, VA (KLNP) at 06:35 AM EDT was:
  The skies were clear.
  Temperature: 68F ( 20C)  Dewpoint:  64F ( 18C)  Relative Humidity:  88%
  Winds from the S  (180 degs) at  5 mph.
  Altimeter:30.07 inches of mercury.
  The prevailing visibility was 10 miles.

The weather observed at WISE/LONESOME PI, VA (KLNP) at 06:55 AM EDT was:
  The skies were clear.
  Temperature: 68F ( 20C)  Dewpoint:  64F ( 18C)  Relative Humidity:  88%
  Winds from the W  (270 degs) at  5 mph.
  Altimeter:30.09 inches of mercury.
  The prevailing visibility was 10 miles.

The weather observed at WISE/LONESOME PI, VA (KLNP) at 07:15 AM EDT was:
  The skies were clear.
  Temperature: 68F ( 20C)  Dewpoint:  64F ( 18C)  Relative Humidity:  88%
  Winds from the W  (270 degs) at  6 mph.
  Altimeter:30.10 inches of mercury.
  The prevailing visibility was 10 miles.

The weather observed at WISE/LONESOME PI, VA (KLNP) at 07:35 AM EDT was:
  The skies were mostly cloudy.
  Temperature: 70F ( 21C)  Dewpoint:  66F ( 19C)  Relative Humidity:  88%
  Winds from the SW (220 degs) at  5 mph.
  Altimeter:30.10 inches of mercury.
  The prevailing visibility was 10 miles.

The weather observed at WISE/LONESOME PI, VA (KLNP) at 07:55 AM EDT was:
  The skies were cloudy.
  Temperature: 70F ( 21C)  Dewpoint:  66F ( 19C)  Relative Humidity:  88%
  Winds from the SW (220 degs) at  5 mph.
  Altimeter:30.11 inches of mercury.
  The prevailing visibility was 10 miles.

The weather observed at WISE/LONESOME PI, VA (KLNP) at 08:15 AM EDT was:
  The skies were cloudy.
  Temperature: 72F ( 22C)  Dewpoint:  66F ( 19C)  Relative Humidity:  83%
  Winds from the SW (240 degs) at  6 mph.
  Altimeter:30.11 inches of mercury.
  The prevailing visibility was 10 miles.

The weather observed at WISE/LONESOME PI, VA (KLNP) at 08:35 AM EDT was:
  The skies were mostly cloudy.
  Temperature: 72F ( 22C)  Dewpoint:  66F ( 19C)  Relative Humidity:  83%
  Winds from the SW (230 degs) at  7 mph.
  Altimeter:30.12 inches of mercury.
  The prevailing visibility was 10 miles.

The weather observed at WISE/LONESOME PI, VA (KLNP) at 08:55 AM EDT was:
  The skies were partly cloudy.
  Temperature: 73F ( 23C)  Dewpoint:  68F ( 20C)  Relative Humidity:  83%
  Winds from the SW (230 degs) at  7 mph.
  Altimeter:30.11 inches of mercury.
  The prevailing visibility was 10 miles.

The weather observed at WISE/LONESOME PI, VA (KLNP) at 09:15 AM EDT was:
  The skies were clear.
  Temperature: 77F ( 25C)  Dewpoint:  68F ( 20C)  Relative Humidity:  74%
  Winds from the SW (240 degs) at  7 mph.
  Altimeter:30.12 inches of mercury.
  The prevailing visibility was 10 miles.

The weather observed at WISE/LONESOME PI, VA (KLNP) at 09:35 AM EDT was:
  The skies were clear.
  Temperature: 77F ( 25C)  Dewpoint:  68F ( 20C)  Relative Humidity:  74%
  Winds from the SW (230 degs) at  5 mph.
  Altimeter:30.12 inches of mercury.
  The prevailing visibility was 10 miles.

The weather observed at WISE/LONESOME PI, VA (KLNP) at 09:55 AM EDT was:
  The skies were partly cloudy.
  Temperature: 77F ( 25C)  Dewpoint:  68F ( 20C)  Relative Humidity:  74%
  Winds from the WSW(250 degs) at  7 mph.
  Altimeter:30.13 inches of mercury.
  The prevailing visibility was 10 miles.

The weather observed at WISE/LONESOME PI, VA (KLNP) at 10:15 AM EDT was:
  The skies were partly cloudy.
  Temperature: 79F ( 26C)  Dewpoint:  68F ( 20C)  Relative Humidity:  70%
  Winds from the WSW(250 degs) at  7 mph.
  Altimeter:30.12 inches of mercury.
  The prevailing visibility was 10 miles.

The weather observed at WISE/LONESOME PI, VA (KLNP) at 10:35 AM EDT was:
  The skies were partly cloudy.
  Temperature: 79F ( 26C)  Dewpoint:  68F ( 20C)  Relative Humidity:  70%
  Winds from the W  (270 degs) at  6 mph.
  Altimeter:30.12 inches of mercury.
  The prevailing visibility was 10 miles.

The weather observed at WISE/LONESOME PI, VA (KLNP) at 10:55 AM EDT was:
  The skies were partly cloudy.
  Temperature: 81F ( 27C)  Dewpoint:  68F ( 20C)  Relative Humidity:  66%
  Winds from the SW (240 degs) at  6 mph.
  Altimeter:30.12 inches of mercury.
  The prevailing visibility was 10 miles.

The weather observed at WISE/LONESOME PI, VA (KLNP) at 11:15 AM EDT was:
  The skies were partly cloudy.
  Temperature: 81F ( 27C)  Dewpoint:  66F ( 19C)  Relative Humidity:  62%
  Winds from the WSW(250 degs) at  7 mph.
  Altimeter:30.12 inches of mercury.
  The prevailing visibility was 10 miles.

The weather observed at WISE/LONESOME PI, VA (KLNP) at 11:35 AM EDT was:
  The skies were partly cloudy.
  Temperature: 82F ( 28C)  Dewpoint:  66F ( 19C)  Relative Humidity:  58%
  Winds from the SW (240 degs) at  8 mph.
  Altimeter:30.12 inches of mercury.
  The prevailing visibility was 10 miles.

The weather observed at WISE/LONESOME PI, VA (KLNP) at 11:55 AM EDT was:
  The skies were mostly cloudy.
  Temperature: 81F ( 27C)  Dewpoint:  68F ( 20C)  Relative Humidity:  66%
  Winds from the SW (220 degs) at  7 mph.
  Altimeter:30.11 inches of mercury.
  The prevailing visibility was 10 miles.

The weather observed at WISE/LONESOME PI, VA (KLNP) at 12:15 PM EDT was:
  The skies were mostly cloudy.
  Temperature: 82F ( 28C)  Dewpoint:  66F ( 19C)  Relative Humidity:  58%
  Winds from the SW (230 degs) at  9 mph.
  Altimeter:30.10 inches of mercury.
  The prevailing visibility was 10 miles.

The weather observed at WISE/LONESOME PI, VA (KLNP) at 12:35 PM EDT was:
  The skies were mostly cloudy.
  Temperature: 81F ( 27C)  Dewpoint:  66F ( 19C)  Relative Humidity:  62%
  Winds from the W  (260 degs) at  8 mph.
  Altimeter:30.10 inches of mercury.
  The prevailing visibility was 10 miles.

The weather observed at WISE/LONESOME PI, VA (KLNP) at 12:55 PM EDT was:
  The skies were mostly cloudy.
  Temperature: 81F ( 27C)  Dewpoint:  66F ( 19C)  Relative Humidity:  62%
  Winds from the WSW(250 degs) at  9 mph.
  Altimeter:30.10 inches of mercury.
  The prevailing visibility was 10 miles.

The weather observed at WISE/LONESOME PI, VA (KLNP) at 01:15 PM EDT was:
  The skies were partly cloudy.
  Temperature: 82F ( 28C)  Dewpoint:  66F ( 19C)  Relative Humidity:  58%
  Winds from the S  (180 degs) at 10 mph.
  Altimeter:30.08 inches of mercury.
  The prevailing visibility was 10 miles.

The weather observed at WISE/LONESOME PI, VA (KLNP) at 01:35 PM EDT was:
  The skies were partly cloudy.
  Temperature: 82F ( 28C)  Dewpoint:  68F ( 20C)  Relative Humidity:  62%
  Winds from the S  (180 degs) at  9 mph.
  Altimeter:30.09 inches of mercury.
  The prevailing visibility was 10 miles.

The weather observed at WISE/LONESOME PI, VA (KLNP) at 01:55 PM EDT was:
  The skies were mostly cloudy.
  Temperature: 82F ( 28C)  Dewpoint:  70F ( 21C)  Relative Humidity:  66%
  Winds from the S  (170 degs) at 12 mph.
  Altimeter:30.08 inches of mercury.
  The prevailing visibility was 10 miles.

The weather observed at WISE/LONESOME PI, VA (KLNP) at 02:15 PM EDT was:
  The skies were mostly cloudy.
  Temperature: 81F ( 27C)  Dewpoint:  70F ( 21C)  Relative Humidity:  70%
  Winds from the S  (170 degs) at  9 mph.
  Altimeter:30.07 inches of mercury.
  The prevailing visibility was 10 miles.

The weather observed at WISE/LONESOME PI, VA (KLNP) at 02:35 PM EDT was:
  The skies were mostly cloudy.
  Temperature: 81F ( 27C)  Dewpoint:  70F ( 21C)  Relative Humidity:  70%
  Winds from the SW (210 degs) at  7 mph.
  Altimeter:30.07 inches of mercury.
  The prevailing visibility was 10 miles.

The weather observed at WISE/LONESOME PI, VA (KLNP) at 02:55 PM EDT was:
  The skies were partly cloudy.
  Temperature: 84F ( 29C)  Dewpoint:  68F ( 20C)  Relative Humidity:  58%
  Winds from the SW (240 degs) at 10 mph.
  Altimeter:30.06 inches of mercury.
  The prevailing visibility was 10 miles.

The weather observed at WISE/LONESOME PI, VA (KLNP) at 03:15 PM EDT was:
  The skies were clear.
  Temperature: 84F ( 29C)  Dewpoint:  66F ( 19C)  Relative Humidity:  55%
  Winds from the SW (230 degs) at 12 mph.
  Altimeter:30.06 inches of mercury.
  The prevailing visibility was 10 miles.

The weather observed at WISE/LONESOME PI, VA (KLNP) at 03:35 PM EDT was:
  The skies were clear.
  Temperature: 86F ( 30C)  Dewpoint:  64F ( 18C)  Relative Humidity:  49%
  Winds from the SW (220 degs) at 12 mph.
  Altimeter:30.06 inches of mercury.
  The prevailing visibility was 10 miles.

The weather observed at WISE/LONESOME PI, VA (KLNP) at 03:55 PM EDT was:
  The skies were partly cloudy.
  Temperature: 86F ( 30C)  Dewpoint:  64F ( 18C)  Relative Humidity:  49%
  Winds from the SW (210 degs) at 12 mph.
  Altimeter:30.05 inches of mercury.
  The prevailing visibility was 10 miles.

Short Range Forecast

Sorry no data found for lnp
Make sure lnp is a valid station
You might need to specify a nearby major city
Try Again

Zone Forecast

VAZ002-170230-
Wise-
Including the cities of Big Stone Gap, Norton, Wise, Coeburn,
Appalachia, and Pardee
231 PM EDT Tue Jul 16 2024

.TONIGHT...Mostly cloudy. A chance of showers and thunderstorms.
Lows in the upper 60s. Southwest winds 10 mph or less. Chance of
rain 50 percent.
.WEDNESDAY...Mostly sunny with a chance of showers and
thunderstorms in the morning, then showers with thunderstorms
likely in the afternoon. Highs in the lower to mid 80s. Southwest
winds 10 mph or less. Chance of rain 90 percent.
.WEDNESDAY NIGHT...Patchy fog until early morning. Showers and
thunderstorms in the evening, then showers with a chance of
thunderstorms after midnight. Lows in the mid 60s. Light winds.
Chance of rain 90 percent.
.THURSDAY...Showers likely with a chance of thunderstorms. Highs
in the mid to upper 70s. Light winds. Chance of rain 70 percent.
.THURSDAY NIGHT...Partly cloudy. Lows in the upper 50s. Light
winds.
.FRIDAY...Partly sunny. A chance of showers and thunderstorms in
the afternoon. Highs in the mid to upper 70s. Chance of rain
40 percent.
.FRIDAY NIGHT...Partly cloudy in the evening, then becoming
mostly cloudy. A slight chance of showers and thunderstorms. Lows
in the lower 60s. Chance of rain 20 percent.
.SATURDAY...Partly sunny. A chance of showers and thunderstorms
in the morning, then showers likely with a chance of
thunderstorms in the afternoon. Highs in the upper 70s to lower
80s. Chance of rain 70 percent.
.SATURDAY NIGHT...Mostly cloudy with a chance of showers and
thunderstorms. Lows in the lower 60s. Chance of rain 30 percent.
.SUNDAY...Partly sunny. A chance of showers and thunderstorms in
the morning, then showers likely with a chance of thunderstorms
in the afternoon. Highs in the upper 70s to lower 80s. Chance of
rain 60 percent.
.SUNDAY NIGHT...Mostly cloudy with a chance of showers and
thunderstorms. Lows in the mid 60s. Chance of rain 40 percent.
.MONDAY...Partly sunny. A chance of showers and thunderstorms in
the morning, then showers likely with a chance of thunderstorms
in the afternoon. Highs in the lower 80s. Chance of rain
60 percent.
.MONDAY NIGHT...Mostly cloudy with a chance of showers and
thunderstorms. Lows in the mid 60s. Chance of rain 50 percent.
.TUESDAY...Partly sunny. A chance of showers and thunderstorms in
the morning, then showers likely with a chance of thunderstorms
in the afternoon. Highs in the upper 70s to lower 80s. Chance of
rain 70 percent.


State Forecast

Sorry no data found for lnp
Make sure lnp is a valid station
You might need to specify a nearby major city
Try Again

State Forecast Discussion

Sorry no data found for lnp
Make sure lnp is a valid station
You might need to specify a nearby major city
Try Again

GFS Short-Range Model Output Statistics (MOS) Forecast

KLNP   GFS MOS GUIDANCE    7/16/2024  1200 UTC
DT /JULY 16/JULY 17                /JULY 18                /JULY 19
HR   18 21 00 03 06 09 12 15 18 21 00 03 06 09 12 15 18 21 00 06 12
N/X                    67          80          64          75    58
TMP  85 86 81 74 70 68 70 77 78 76 72 69 68 67 67 70 72 73 69 62 62
DPT  66 66 67 67 67 66 68 68 68 68 69 69 68 67 67 67 64 62 61 58 59
CLD  SC BK OV BK BK OV OV BK OV OV OV OV OV OV OV OV OV BK BK SC FW
WDR  23 23 24 20 21 22 23 24 25 27 28 26 29 31 34 34 33 33 34 01 03
WSP  08 09 05 03 05 07 06 10 13 11 05 02 02 02 02 04 04 05 03 02 02
P06        17    40    19    34    61    59    35    42    32  5  4
P12                    55          88          66          61    10
Q06         0     1     0     0     2     2     0     1     0  0  0
Q12                     1           3           2           1     0
T06     36/17 31/ 4 12/ 1 25/ 2 55/20 24/ 3  6/ 1 26/ 0 33/10  1/ 0
T12           64/19       35/ 3       66/20       31/ 3    33/10
CIG   8  8  8  8  8  8  7  7  6  7  6  6  2  2  2  4  6  7  7  8  8
VIS   7  7  7  7  6  7  7  7  7  7  7  5  1  1  3  7  7  7  7  7  7
OBV   N  N  N  N  N  N  N  N  N  N  N BR FG FG BR  N  N  N  N  N  N

GFS Long-Range Model Output Statistics (MOS) Forecast

KLNP   GFSX MOS GUIDANCE   7/16/2024  1200 UTC
FHR  24  36| 48  60| 72  84| 96 108|120 132|144 156|168 180|192
     WED 17| THU 18| FRI 19| SAT 20| SUN 21| MON 22| TUE 23|WED CLIMO
N/X  67  80| 64  75| 58  80| 64  79| 64  81| 65  78| 65  79| 64 61 83
TMP  70  72| 67  69| 62  74| 67  73| 67  75| 67  72| 67  73| 67
DPT  68  69| 67  61| 59  58| 62  62| 64  64| 65  65| 65  64| 64
CLD  OV  OV| OV  OV| PC  PC| OV  OV| OV  OV| OV  OV| OV  OV| OV
WND   7  13|  5   5|  3   4|  3   5|  2   6|  3   6|  5   8|  6
P12  55  88| 66  61| 10  11| 20  47| 32  37| 36  50| 38  47| 35999999
P24      88|     81|     13|     48|     49|     62|     72|      999
Q12   1   3|  2   1|  0   0|  0   1|  0   0|  1   2|       |
Q24       3|      3|      0|      1|      1|      3|       |
T12  34  63| 28  35|  5  22|  9  40| 18  40| 20  39| 18  39| 18
T24        | 63    | 35    | 25    | 40    | 44    | 41    | 39

NGM Model Output Statistics (MOS) Forecast

Climatological Summary

Sorry no data found for lnp
Make sure lnp is a valid station
You might need to specify a nearby major city
Try Again

Watch and Warning Statment

Sorry no data found for lnp
Make sure lnp is a valid station
You might need to specify a nearby major city
or it could be THERE ARE NO WATCHES OR WARNINGS for lnp
Try Again

Park/Ski Recreation Report/Forecast

Sorry no data found for lnp
Make sure lnp is a valid station
You might need to specify a nearby major city
Try Again